• Join FlightAware (Why Join?)
  • Login
  • US Flag 
04:25PM EDT


 

Airport Tracker/Info


-or-


 

Live Flight TrackerFlight Track Log ✈ AAL1278 ✈ 07-May-2013 ✈ KLAX - KORD

Flight Track Log - Related Links

Times and Time Zones

All times are in EDT time to prevent confusion due to time zone crossing. See the AAL1278 flight status page for this flight to view local times or setup timezone preferences in your user account.

Time Position Orientation Groundspeed Altitude Reporting Facility
EDT Latitude Longitude Course Direction KTS MPH feet Rate Location/Type
07:28PM 33.9070 -118.4890 231° Southwest 230 265 2,700  Level FlightAware
07:28PM 33.8860 -118.5190 230° Southwest 253 291 3,700 2,160 Climbing FlightAware
07:29PM 33.8590 -118.5520 225° Southwest 273 314 4,900 2,280 Climbing FlightAware
07:29PM 33.8360 -118.5570 190° South 278 320 5,600 2,520 Climbing FlightAware
07:29PM 33.8090 -118.5510 170° South 282 325 6,600 2,760 Climbing FlightAware
07:30PM 33.7770 -118.5420 167° South 289 333 7,700 3,000 Climbing FlightAware
07:30PM 33.7350 -118.5310 168° South 291 335 9,400 3,000 Climbing FlightAware
07:31PM 33.7000 -118.5070 150° Southeast 309 356 10,700 2,400 Climbing FlightAware
07:31PM 33.6820 -118.4700 120° Southeast 331 381 11,600 2,400 Climbing FlightAware
07:32PM 33.6580 -118.3890 110° East 356 410 13,500 2,640 Climbing FlightAware
07:33PM 33.6450 -118.3050 101° East 372 428 15,400 2,700 Climbing FlightAware
07:33PM 33.6440 -118.2140 91° East 387 445 17,400 2,400 Climbing FlightAware
07:34PM 33.6450 -118.1520 89° East 404 465 18,400 1,920 Climbing FlightAware
07:35PM 33.6440 -118.0290 91° East 437 503 20,000 1,860 Climbing FlightAware
07:36PM 33.6440 -117.9150 90° East 460 529 21,400 1,860 Climbing FlightAware
07:36PM 33.6440 -117.8110 90° East 475 547 22,700 1,920 Climbing FlightAware
07:37PM 33.6440 -117.6940 90° East 487 560 24,200 1,800 Climbing FlightAware
07:38PM 33.6430 -117.5850 91° East 500 575 25,300 1,380 Climbing FlightAware
07:38PM 33.6430 -117.4700 90° East 522 601 26,100 1,080 Climbing FlightAware
07:39PM 33.6450 -117.3390 89° East 540 621 26,900 1,380 Climbing FlightAware
07:40PM 33.6650 -117.2190 79° East 544 626 28,100 2,040 Climbing FlightAware
07:40PM 33.6890 -117.0860 78° East 538 619 29,800 2,040 Climbing FlightAware
07:41PM 33.7100 -116.9710 78° East 537 618 31,000 1,800 Climbing FlightAware
07:42PM 33.7310 -116.8540 78° East 534 615 32,200 1,740 Climbing FlightAware
07:43PM 33.7540 -116.7270 78° East 528 608 33,500 1,800 Climbing FlightAware
07:43PM 33.7740 -116.6150 78° East 520 598 34,800 1,380 Climbing FlightAware
07:44PM 33.8010 -116.4640 78° East 516 594 35,700 1,440 Climbing FlightAware
07:45PM 33.8170 -116.3700 78° East 503 579 37,000 1,500 Climbing FlightAware
07:46PM 33.8430 -116.2260 78° East 503 579 37,900 1,080 Climbing FlightAware
07:46PM 33.8610 -116.1200 78° East 498 573 38,700 780 Climbing FlightAware
07:47PM 33.8800 -116.0090 78° East 502 578 39,000 180 Climbing FlightAware
07:48PM 33.9020 -115.8840 78° East 505 581 39,000  Level FlightAware
07:48PM 33.9220 -115.7650 79° East 506 582 39,000  Level FlightAware
07:49PM 33.9400 -115.6610 78° East 507 583 39,000  Level FlightAware
07:50PM 33.9590 -115.5530 78° East 507 583 39,000  Level FlightAware
07:50PM 33.9810 -115.4170 79° East 507 583 39,000  Level FlightAware
07:51PM 34.0060 -115.2720 78° East 507 583 39,000  Level FlightAware
07:52PM 34.0230 -115.1780 78° East 507 583 39,000  Level FlightAware
07:53PM 34.0390 -115.0840 78° East 507 583 39,000  Level FlightAware
07:53PM 34.0560 -114.9900 78° East 507 583 39,000  Level FlightAware
07:54PM 34.0770 -114.8720 78° East 507 583 39,000  Level FlightAware
07:55PM 34.0950 -114.7220 82° East 39,000  Level FlightAware
07:56PM 34.1250 -114.6030 73° East 509 586 39,000  Level FlightAware
07:56PM 34.1610 -114.4750 71° East 511 588 39,000  Level FlightAware
07:57PM 34.1860 -114.3830 72° East 510 587 39,000  Level FlightAware
07:58PM 34.2320 -114.2190 71° East 509 586 39,000  Level FlightAware
07:58PM 34.2620 -114.1120 71° East 509 586 39,000  Level FlightAware
07:59PM 34.2910 -114.0070 71° East 508 585 39,000  Level FlightAware
08:00PM 34.3250 -113.8850 71° East 511 588 39,000  Level FlightAware
08:00PM 34.3550 -113.7760 72° East 510 587 39,000  Level FlightAware
08:01PM 34.3890 -113.6530 71° East 511 588 39,000  Level FlightAware
08:02PM 34.4180 -113.5460 72° East 511 588 39,000  Level FlightAware
08:03PM 34.4510 -113.4240 72° East 510 587 39,000  Level FlightAware
08:03PM 34.4810 -113.3150 72° East 512 589 39,000  Level FlightAware
08:04PM 34.5140 -113.1910 72° East 511 588 39,000  Level FlightAware
08:05PM 34.5420 -113.0850 72° East 512 589 39,000  Level FlightAware
08:05PM 34.5750 -112.9620 72° East 512 589 39,000  Level FlightAware
08:06PM 34.6040 -112.8530 72° East 511 588 39,000  Level FlightAware
08:07PM 34.6330 -112.7450 72° East 512 589 39,000  Level FlightAware
08:08PM 34.6660 -112.6190 72° East 510 587 39,000  Level FlightAware
08:08PM 34.6950 -112.5090 72° East 511 588 39,000  Level FlightAware
08:09PM 34.7250 -112.3890 73° East 508 585 39,000  Level FlightAware
08:10PM 34.7550 -112.2500 75° East 506 582 39,000  Level FlightAware
08:11PM 34.7840 -112.1250 74° East 505 581 39,000  Level FlightAware
08:11PM 34.8100 -112.0080 75° East 504 580 39,000  Level FlightAware
08:12PM 34.8330 -111.9080 74° East 502 578 39,000  Level FlightAware
08:13PM 34.8600 -111.7900 74° East 503 579 39,000  Level FlightAware
08:13PM 34.8890 -111.6630 74° East 502 578 39,000  Level FlightAware
08:14PM 34.9100 -111.5680 75° East 502 578 39,000  Level FlightAware
08:15PM 34.9390 -111.4340 75° East 501 577 39,000  Level FlightAware
08:15PM 34.9630 -111.3270 75° East 497 572 39,000  Level FlightAware
08:16PM 34.9880 -111.2170 74° East 501 577 39,000  Level FlightAware
08:17PM 35.0150 -111.0930 75° East 502 578 39,000  Level FlightAware
08:18PM 35.0380 -110.9840 76° East 500 575 39,000  Level FlightAware
08:18PM 35.0630 -110.8720 75° East 503 579 39,000  Level FlightAware
08:19PM 35.0880 -110.7550 75° East 502 578 39,000  Level FlightAware
08:20PM 35.1120 -110.6420 75° East 505 581 39,000  Level FlightAware
08:20PM 35.1390 -110.5150 75° East 507 583 39,000  Level FlightAware
08:21PM 35.1630 -110.4040 75° East 507 583 39,000  Level FlightAware
08:22PM 35.1850 -110.2970 76° East 509 586 39,000  Level FlightAware
08:22PM 35.2120 -110.1720 75° East 512 589 39,000  Level FlightAware
08:23PM 35.2350 -110.0600 76° East 511 588 39,000  Level FlightAware
08:24PM 35.2660 -109.9160 75° East 512 589 39,000  Level FlightAware
08:25PM 35.2870 -109.8200 75° East 512 589 39,000  Level FlightAware
08:25PM 35.3120 -109.6860 77° East 509 586 39,000  Level FlightAware
08:26PM 35.3380 -109.5650 75° East 509 586 39,000  Level FlightAware
08:27PM 35.3590 -109.4700 75° East 509 586 39,000  Level FlightAware
08:28PM 35.3930 -109.2890 77° East 501 577 39,000  Level FlightAware
08:28PM 35.4120 -109.1960 76° East 501 577 39,000  Level FlightAware
08:29PM 35.4420 -109.0440 76° East 502 578 39,000  Level FlightAware
08:30PM 35.4680 -108.9150 76° East 502 578 39,000  Level FlightAware
08:31PM 35.4820 -108.8450 76° East 502 578 39,000  Level FlightAware
08:31PM 35.5200 -108.7110 71° East 495 570 39,000  Level FlightAware
08:32PM 35.5470 -108.6130 71° East 491 565 39,000  Level FlightAware
08:33PM 35.5820 -108.4810 72° East 486 559 39,000  Level FlightAware
08:33PM 35.6110 -108.3750 71° East 486 559 39,000  Level FlightAware
08:34PM 35.6420 -108.2590 72° East 486 559 39,000  Level FlightAware
08:35PM 35.6690 -108.1570 72° East 485 558 39,000  Level FlightAware
08:36PM 35.7020 -108.0350 72° East 486 559 39,000  Level FlightAware
08:36PM 35.7290 -107.9330 72° East 487 560 39,000  Level FlightAware
08:37PM 35.7550 -107.8320 72° East 489 563 39,000  Level FlightAware
08:38PM 35.7880 -107.7090 72° East 490 564 39,000  Level FlightAware
08:38PM 35.8120 -107.6160 72° East 490 564 39,000  Level FlightAware
08:39PM 35.8460 -107.4830 72° East 491 565 39,000  Level FlightAware
08:40PM 35.8750 -107.3740 72° East 492 566 39,000  Level FlightAware
08:40PM 35.9020 -107.2680 73° East 491 565 39,000  Level FlightAware
08:41PM 35.9330 -107.1500 72° East 489 563 39,000  Level FlightAware
08:42PM 35.9600 -107.0430 73° East 489 563 39,000  Level FlightAware
08:43PM 35.9970 -106.8980 72° East 485 558 39,000  Level FlightAware
08:43PM 36.0250 -106.7900 72° East 473 544 39,000  Level FlightAware
08:44PM 36.0520 -106.6800 73° East 467 537 39,000  Level FlightAware
08:45PM 36.0810 -106.5640 73° East 469 540 39,000  Level FlightAware
08:46PM 36.1070 -106.4660 72° East 472 543 39,000  Level FlightAware
08:46PM 36.1420 -106.3250 73° East 477 549 39,000  Level FlightAware
08:47PM 36.1670 -106.2190 74° East 477 549 39,000  Level FlightAware
08:48PM 36.1960 -106.1110 72° East 477 549 39,000  Level FlightAware
08:49PM 36.2190 -106.0220 72° East 477 549 39,000  Level FlightAware
08:49PM 36.2420 -105.9340 72° East 477 549 39,000  Level FlightAware
08:50PM 36.2650 -105.8460 72° East 477 549 39,000  Level FlightAware
08:51PM 36.2940 -105.7350 72° East 477 549 39,000  Level FlightAware
08:51PM 36.3170 -105.6460 72° East 477 549 39,000  Level FlightAware
08:52PM 36.3410 -105.5580 71° East 477 549 39,000  Level FlightAware
08:53PM 36.3640 -105.4690 72° East 477 549 39,000  Level FlightAware
08:53PM 36.3870 -105.3800 72° East 477 549 39,000  Level FlightAware
08:54PM 36.4160 -105.2700 72° East 477 549 39,000  Level FlightAware
08:55PM 36.4390 -105.1810 72° East 477 549 39,000  Level FlightAware
08:56PM 36.4620 -105.0920 72° East 477 549 39,000  Level FlightAware
08:56PM 36.4850 -105.0040 72° East 477 549 39,000  Level FlightAware
08:57PM 36.5090 -104.9150 71° East 477 549 39,000  Level FlightAware
08:57PM 36.5725 -104.6497 71° East 473 544 39,000  Level Kansas City Center
09:03PM 36.8826 -103.7910 71° East 478 550 39,000  Level FlightAware ADS-B
09:04PM 36.9420 -103.6240 66° East 477 549 39,000  Level FlightAware ADS-B
09:07PM 37.0919 -103.1970 66° East 482 555 39,000  Level FlightAware ADS-B
09:07PM 37.1189 -103.1190 67° East 482 555 39,000  Level FlightAware ADS-B
09:08PM 37.1452 -103.0430 67° East 475 547 39,000  Level FlightAware ADS-B
09:08PM 37.1717 -102.9670 66° East 475 547 39,000  Level FlightAware ADS-B
09:09PM 37.1980 -102.8920 66° East 475 547 39,000  Level FlightAware ADS-B
09:09PM 37.2243 -102.8160 66° East 475 547 39,000  Level FlightAware ADS-B
09:10PM 37.2505 -102.7390 67° East 477 549 39,000  Level FlightAware ADS-B
09:10PM 37.2766 -102.6630 67° East 478 550 39,000  Level FlightAware ADS-B
09:11PM 37.3029 -102.5860 67° East 477 549 39,000  Level FlightAware ADS-B
09:11PM 37.3294 -102.5080 67° East 478 550 39,000  Level FlightAware ADS-B
09:12PM 37.3554 -102.4320 67° East 478 550 39,000  Level FlightAware ADS-B
09:12PM 37.3647 -102.4100 67° East 479 551 39,000  Level Albuquerque Center
09:13PM 37.4178 -102.2483 68° East 476 548 39,000  Level Albuquerque Center
09:14PM 37.4672 -102.1031 67° East 473 544 39,000  Level Albuquerque Center
09:15PM 37.5233 -101.9322 67° East 472 543 39,000  Level Albuquerque Center
09:16PM 37.5519 -101.8336 70° East 471 542 39,000  Level Kansas City Center
09:17PM 37.5831 -101.6808 76° East 471 542 39,000  Level Kansas City Center
09:18PM 37.6211 -101.5028 75° East 470 541 39,000  Level Kansas City Center
09:19PM 37.6544 -101.3506 74° East 471 542 39,000  Level Kansas City Center
09:20PM 37.6911 -101.1758 75° East 464 534 39,000  Level Kansas City Center
09:21PM 37.7164 -101.0242 78° East 458 527 39,000  Level Kansas City Center
09:22PM 37.7422 -100.8711 78° East 457 526 39,000  Level Kansas City Center
09:23PM 37.7639 -100.7100 80° East 465 535 39,000 480 Level Kansas City Center
09:24PM 37.7864 -100.5283 81° East 465 535 40,000 660 Climbing Kansas City Center
09:25PM 37.8047 -100.3700 82° East 472 543 40,400 480 Climbing Kansas City Center
09:26PM 37.8236 -100.1906 82° East 466 536 41,000 240 Climbing Kansas City Center
09:27PM 37.8342 -100.0367 85° East 460 529 41,000  Level Kansas City Center
09:28PM 37.8394 -99.8819 87° East 459 528 41,000  Level Kansas City Center
09:29PM 37.8392 -99.7003 90° East 462 532 41,000  Level Kansas City Center
09:30PM 37.8308 -99.5433 94° East 465 535 41,000  Level Kansas City Center
09:31PM 37.8197 -99.3728 95° East 470 541 41,000  Level Kansas City Center
09:37PM 37.8050 -98.3510 95° East 468 539 41,000  Level FlightAware
09:38PM 37.8270 -98.2390 76° East 465 535 41,000  Level FlightAware
09:39PM 37.8640 -98.0430 76° East 462 532 41,000  Level FlightAware
09:40PM 37.8800 -97.9610 76° East 461 531 41,000  Level FlightAware
09:41PM 37.9110 -97.7810 78° East 459 528 41,000  Level FlightAware
09:42PM 37.9340 -97.6510 77° East 459 528 41,000  Level FlightAware
09:43PM 37.9600 -97.5350 74° East 461 531 41,000  Level FlightAware
09:43PM 37.9790 -97.4500 74° East 461 531 41,000  Level FlightAware
09:44PM 38.0140 -97.3030 73° East 461 531 41,000  Level FlightAware
09:45PM 38.0420 -97.2000 71° East 459 528 41,000  Level FlightAware
09:47PM 38.1480 -96.8090 71° East 456 525 41,000  Level FlightAware
09:48PM 38.1770 -96.7050 70° East 456 525 41,000  Level FlightAware
09:49PM 38.1800 -96.7150 291° West 461 531 41,000  Level FlightAware
09:50PM 38.2130 -96.6330 63° Northeast 461 531 41,000  Level FlightAware
09:50PM 38.2460 -96.5510 63° Northeast 461 531 41,000  Level FlightAware
09:51PM 38.2870 -96.4480 63° Northeast 461 531 41,000  Level FlightAware
09:52PM 38.3200 -96.3660 63° Northeast 461 531 41,000  Level FlightAware
09:53PM 38.3530 -96.2830 63° Northeast 461 531 41,000  Level FlightAware
09:54PM 38.5680 -95.8900 55° Northeast 460 529 41,000  Level FlightAware
09:55PM 38.5970 -95.8310 58° Northeast 459 528 41,000  Level FlightAware
09:56PM 38.6460 -95.7320 58° Northeast 457 526 41,000  Level FlightAware
09:57PM 38.7060 -95.6120 57° Northeast 454 522 41,000  Level FlightAware
09:57PM 38.7550 -95.5140 57° Northeast 453 521 41,000  Level FlightAware
09:58PM 38.8060 -95.4090 58° Northeast 450 518 41,000  Level FlightAware
09:59PM 38.8400 -95.3400 58° Northeast 448 516 41,000  Level FlightAware
10:00PM 38.9200 -95.1780 58° Northeast 447 514 41,000  Level FlightAware
10:00PM 38.9570 -95.1020 58° Northeast 446 513 41,000  Level FlightAware
10:01PM 39.0350 -94.9410 58° Northeast 446 513 41,000  Level FlightAware
10:02PM 39.0780 -94.8530 58° Northeast 447 514 41,000  Level FlightAware
10:03PM 39.1320 -94.7400 58° Northeast 448 516 41,000  Level FlightAware
10:04PM 39.2070 -94.5880 57° Northeast 450 518 41,000  Level FlightAware
10:05PM 39.2560 -94.4850 58° Northeast 452 520 41,000  Level FlightAware
10:06PM 39.3660 -94.2530 58° Northeast 456 525 41,000  Level FlightAware
10:07PM 39.4150 -94.1490 59° Northeast 456 525 41,000  Level FlightAware
10:07PM 39.4610 -94.0520 58° Northeast 457 526 41,000  Level FlightAware
10:08PM 39.5050 -93.9590 58° Northeast 458 527 41,000  Level FlightAware
10:09PM 39.5510 -93.8530 61° Northeast 459 528 41,000  Level FlightAware
10:09PM 39.5910 -93.7570 62° Northeast 460 529 41,000  Level FlightAware
10:10PM 39.6370 -93.6460 62° Northeast 460 529 41,000  Level FlightAware
10:11PM 39.6790 -93.5480 61° Northeast 461 531 41,000  Level FlightAware
10:12PM 39.7240 -93.4430 61° Northeast 459 528 41,000  Level FlightAware
10:12PM 39.7650 -93.3450 61° Northeast 457 526 41,000  Level FlightAware
10:13PM 39.8040 -93.2510 62° Northeast 458 527 41,000  Level FlightAware
10:14PM 39.8450 -93.1530 61° Northeast 458 527 41,000  Level FlightAware
10:14PM 39.8920 -93.0400 62° Northeast 458 527 41,000  Level FlightAware
10:15PM 39.9360 -92.9350 61° Northeast 457 526 41,000  Level FlightAware
10:16PM 39.9760 -92.8390 61° Northeast 455 524 41,000  Level FlightAware
10:16PM 40.0040 -92.7690 62° Northeast 454 522 41,000  Level FlightAware
10:17PM 40.0600 -92.6330 62° Northeast 453 521 41,000  Level FlightAware
10:18PM 40.0980 -92.5390 62° Northeast 450 518 41,000  Level FlightAware
10:19PM 40.1420 -92.4330 61° Northeast 449 517 41,000  Level FlightAware
10:19PM 40.1820 -92.3340 62° Northeast 448 516 41,000  Level FlightAware
10:20PM 40.2200 -92.2400 62° Northeast 447 514 41,000  Level FlightAware
10:21PM 40.2650 -92.1280 62° Northeast 447 514 41,000  Level FlightAware
10:21PM 40.3030 -92.0350 62° Northeast 449 517 41,000  Level FlightAware
10:22PM 40.3410 -91.9380 63° Northeast 449 517 41,000 -180 Level FlightAware
10:23PM 40.3830 -91.8330 62° Northeast 430 495 40,800 -1,320 Descending FlightAware
10:23PM 40.4210 -91.7390 62° Northeast 430 495 39,200 -2,340 Descending FlightAware
10:24PM 40.4610 -91.6370 63° Northeast 432 497 37,500 -2,340 Descending FlightAware
10:25PM 40.4980 -91.5440 62° Northeast 429 494 35,900 -2,640 Descending FlightAware
10:26PM 40.5390 -91.4400 63° Northeast 435 501 33,800 -2,100 Descending FlightAware
10:26PM 40.5750 -91.3420 64° Northeast 439 505 33,000 -660 Descending FlightAware
10:27PM 40.6040 -91.2570 66° East 428 493 33,000  Level FlightAware
10:28PM 40.6450 -91.1380 66° East 437 503 33,000  Level FlightAware
10:28PM 40.6680 -91.0710 66° East 436 502 33,000  Level FlightAware
10:29PM 40.7150 -90.9320 66° East 437 503 33,000  Level FlightAware
10:30PM 40.7460 -90.8390 66° East 437 503 33,000  Level FlightAware
10:30PM 40.7790 -90.7400 66° East 438 504 33,000  Level FlightAware
10:31PM 40.8180 -90.6240 66° East 438 504 33,000  Level FlightAware
10:32PM 40.8500 -90.5310 66° East 438 504 33,000  Level FlightAware
10:32PM 40.8740 -90.4570 67° East 437 503 33,000  Level FlightAware
10:33PM 40.9080 -90.3560 66° East 438 504 33,000  Level FlightAware
10:34PM 40.9440 -90.2490 66° East 438 504 33,000  Level FlightAware
10:34PM 40.9750 -90.1540 67° East 438 504 33,000 -360 Level FlightAware
10:35PM 41.0120 -90.0400 67° East 435 501 32,500 -1,860 Descending FlightAware
10:36PM 41.0440 -89.9430 66° East 439 505 30,400 -3,180 Descending FlightAware
10:36PM 41.0770 -89.8410 67° East 439 505 28,300 -2,760 Descending FlightAware
10:37PM 41.1120 -89.7340 67° East 428 493 26,500 -2,400 Descending FlightAware
10:38PM 41.1430 -89.6400 66° East 416 479 24,900 -2,340 Descending FlightAware
10:39PM 41.1810 -89.5350 64° Northeast 403 464 23,200 -2,100 Descending FlightAware
10:39PM 41.2150 -89.4520 61° Northeast 400 460 22,000 -1,980 Descending FlightAware
10:40PM 41.2510 -89.3620 62° Northeast 395 455 20,600 -1,920 Descending FlightAware
10:41PM 41.2890 -89.2690 61° Northeast 386 444 19,300 -1,860 Descending FlightAware
10:41PM 41.3220 -89.1850 62° Northeast 380 437 18,000 -1,920 Descending FlightAware
10:42PM 41.3540 -89.1050 62° Northeast 374 430 16,800 -1,860 Descending FlightAware
10:43PM 41.3920 -89.0110 62° Northeast 369 425 15,400 -1,860 Descending FlightAware
10:43PM 41.4230 -88.9330 62° Northeast 357 411 14,200 -1,740 Descending FlightAware
10:44PM 41.4570 -88.8480 62° Northeast 347 399 13,000 -1,680 Descending FlightAware
10:45PM 41.4860 -88.7730 63° Northeast 338 389 11,900 -1,500 Descending FlightAware
10:46PM 41.5190 -88.6900 62° Northeast 332 382 10,900 -720 Descending FlightAware
10:46PM 41.5480 -88.6170 62° Northeast 331 381 10,900  Level FlightAware
10:47PM 41.5750 -88.5480 62° Northeast 321 369 10,900 -360 Level FlightAware
10:48PM 41.6060 -88.4740 61° Northeast 290 334 10,400 -960 Descending FlightAware
10:48PM 41.6290 -88.4320 54° Northeast 284 327 9,700 -1,500 Descending FlightAware
10:48PM 41.6380 -88.4180 49° Northeast 282 325 9,400 -1,680 Descending FlightAware
10:49PM 41.6620 -88.3760 53° Northeast 280 322 8,600 -1,560 Descending FlightAware
10:49PM 41.6810 -88.3430 52° Northeast 278 320 8,000 -1,140 Descending FlightAware
10:50PM 41.7100 -88.3110 39° Northeast 264 304 7,600 -1,080 Descending FlightAware
10:50PM 41.7290 -88.3090 North 262 302 7,200 -960 Descending FlightAware
10:51PM 41.7650 -88.3090 360° North 257 296 6,900 -360 Descending FlightAware
10:51PM 41.7940 -88.3100 359° North 255 293 6,900  Level FlightAware
10:51PM 41.8120 -88.3100 360° North 254 292 6,900 -180 Level FlightAware
10:52PM 41.8470 -88.3100 360° North 250 288 6,800 -360 Descending FlightAware
10:52PM 41.8720 -88.3100 360° North 231 266 6,600 -780 Descending FlightAware
10:53PM 41.9050 -88.3100 360° North 222 255 6,100 -1,380 Descending FlightAware
10:53PM 41.9410 -88.2930 19° North 222 255 5,000 -1,560 Descending FlightAware
10:54PM 41.9560 -88.2570 61° Northeast 224 258 4,300 -1,200 Descending FlightAware
10:54PM 41.9650 -88.2250 69° East 222 255 3,900 -540 Descending FlightAware
10:55PM 41.9680 -88.1990 81° East 224 258 3,900 -240 Level FlightAware
10:55PM 41.9680 -88.1400 90° East 225 259 3,700 -660 Descending FlightAware
10:56PM 41.9680 -88.1080 90° East 216 249 3,200 -1,200 Descending FlightAware
10:56PM 41.9690 -88.0720 88° East 197 227 2,600 -1,200 Descending FlightAware
10:57PM 41.9690 -88.0290 90° East 164 189 1,800 -1,020 Descending FlightAware
10:57PM 41.9690 -88.0090 90° East 142 163 1,600 -720 Descending FlightAware
10:58PM 41.9690 -87.9870 90° East 130 150 1,300 -720 Descending FlightAware
10:58PM 41.9690 -87.9710 90° East 130 150 1,100 -600 Descending FlightAware
10:58PM 41.9690 -87.9470 90° East 137 158 800 -600 Descending FlightAware
10:59PM 41.9690 -87.9190 90° East 132 152 500 -360 Descending FlightAware
10:59PM 41.9690 -87.9010 90° East 132 152 500  Level FlightAware